Time;durP1;ratioP1;P1;durP2;ratioP2;P2;SDS_P1;SDS_P2;PMS_P1;PMS_P2;Temp;Humidity;BMP_temperature;BMP_pressure;BME280_temperature;BME280_humidity;BME280_pressure;Samples;Min_cycle;Max_cycle;Signal;HPM_P1;HPM_P2
2021/03/27 00:01:49;;;;;;;132.43;58.58;;;7.20;77.90;;;;;;5073730;28;19904;-74
2021/03/27 00:04:43;;;;;;;129.38;56.70;;;7.10;77.30;;;;;;5073252;28;20107;-74
2021/03/27 00:07:24;;;;;;;132.18;55.13;;;7.00;79.20;;;;;;5055436;28;20028;-73
2021/03/27 00:09:55;;;;;;;133.05;56.83;;;7.00;78.10;;;;;;5073366;28;20104;-74
2021/03/27 00:12:43;;;;;;;122.57;55.17;;;7.00;78.10;;;;;;5055466;28;20098;-74
2021/03/27 00:15:17;;;;;;;126.53;56.22;;;7.00;78.00;;;;;;5073674;28;20368;-74
2021/03/27 00:18:10;;;;;;;122.20;53.05;;;6.90;77.10;;;;;;5055078;28;20069;-73
2021/03/27 00:20:49;;;;;;;116.80;51.95;;;6.90;77.60;;;;;;5073317;28;20551;-72
2021/03/27 00:23:28;;;;;;;130.90;58.22;;;6.90;77.70;;;;;;5055279;28;20028;-75
2021/03/27 00:26:04;;;;;;;148.40;63.03;;;6.70;81.70;;;;;;5073118;28;20498;-74
2021/03/27 00:28:43;;;;;;;137.75;62.55;;;6.60;82.10;;;;;;5055161;28;20029;-76
2021/03/27 00:31:17;;;;;;;158.27;69.97;;;6.50;82.80;;;;;;5055057;28;20082;-75
2021/03/27 00:33:51;;;;;;;183.50;77.20;;;6.50;83.20;;;;;;5072826;28;20033;-72
2021/03/27 00:36:29;;;;;;;188.52;89.32;;;6.50;84.90;;;;;;5073064;28;20043;-72
2021/03/27 00:39:01;;;;;;;162.15;74.38;;;6.40;89.30;;;;;;5055021;28;20028;-74
2021/03/27 00:41:35;;;;;;;167.55;72.70;;;6.30;86.10;;;;;;5055027;28;20029;-73
2021/03/27 00:44:05;;;;;;;161.80;77.28;;;6.20;86.10;;;;;;5054981;28;20024;-76
2021/03/27 00:46:32;;;;;;;164.85;75.75;;;6.20;86.00;;;;;;5072979;28;20068;-74
2021/03/27 00:49:12;;;;;;;168.18;80.53;;;6.20;86.00;;;;;;5073186;28;20441;-74
2021/03/27 00:51:47;;;;;;;156.48;75.28;;;6.10;87.80;;;;;;5054704;28;20101;-75
2021/03/27 00:54:20;;;;;;;149.95;69.53;;;6.10;87.70;;;;;;5072935;28;20096;-76
2021/03/27 00:57:07;;;;;;;161.32;73.75;;;6.10;86.90;;;;;;5072415;28;20105;-75
2021/03/27 00:59:38;;;;;;;167.18;79.55;;;6.10;85.80;;;;;;5054794;28;20063;-75
2021/03/27 01:02:10;;;;;;;171.90;82.88;;;6.20;84.70;;;;;;5054893;28;20055;-75
2021/03/27 01:04:36;;;;;;;;;;;6.10;86.40;;;;;;5055159;28;20488;-71
2021/03/27 01:07:07;;;;;;;189.90;95.18;;;6.30;87.40;;;;;;5056617;28;20271;-70
2021/03/27 01:10:01;;;;;;;192.27;96.00;;;6.10;90.00;;;;;;5076808;28;20032;-71
2021/03/27 01:12:34;;;;;;;203.48;102.80;;;5.90;89.70;;;;;;5076796;28;20032;-73
2021/03/27 01:15:14;;;;;;;174.07;89.38;;;5.90;88.80;;;;;;5058587;28;20094;-72
2021/03/27 01:17:43;;;;;;;173.82;79.90;;;5.80;89.40;;;;;;5058722;28;20063;-72
2021/03/27 01:20:23;;;;;;;126.72;64.47;;;5.90;89.10;;;;;;5076569;28;20032;-74
2021/03/27 01:22:51;;;;;;;201.55;121.00;;;5.90;90.10;;;;;;5058569;28;20077;-74
2021/03/27 01:25:31;;;;;;;169.50;104.18;;;6.00;90.00;;;;;;5076430;28;20140;-75
2021/03/27 01:28:29;;;;;;;122.93;65.68;;;6.00;90.20;;;;;;5058596;28;20381;-75
2021/03/27 01:31:16;;;;;;;117.65;58.85;;;6.10;88.20;;;;;;5058584;28;20039;-73
2021/03/27 01:34:09;;;;;;;123.43;58.25;;;6.00;87.90;;;;;;5076596;28;20492;-74
2021/03/27 01:36:45;;;;;;;128.35;62.00;;;6.10;87.70;;;;;;5058279;28;20078;-73
2021/03/27 01:39:28;;;;;;;128.45;59.15;;;6.10;86.90;;;;;;5076232;28;20380;-74
2021/03/27 01:42:15;;;;;;;135.93;64.32;;;6.00;87.00;;;;;;5076220;28;20024;-74
2021/03/27 01:45:09;;;;;;;136.50;66.70;;;5.90;87.30;;;;;;5058021;28;20379;-73
2021/03/27 01:47:40;;;;;;;127.20;66.72;;;5.90;88.90;;;;;;5076012;28;20078;-75
2021/03/27 01:50:13;;;;;;;139.77;66.65;;;5.90;90.20;;;;;;5058068;28;20554;-73
2021/03/27 01:53:01;;;;;;;132.45;63.03;;;5.90;90.30;;;;;;5075937;28;20032;-74
2021/03/27 01:55:32;;;;;;;126.82;61.78;;;5.90;90.60;;;;;;5057594;28;20048;-74
2021/03/27 01:58:33;;;;;;;113.30;58.78;;;5.90;91.40;;;;;;5057932;28;20362;-74
2021/03/27 02:01:07;;;;;;;94.85;48.88;;;5.90;91.50;;;;;;5075616;28;20032;-74
2021/03/27 02:04:03;;;;;;;93.93;50.30;;;5.90;92.90;;;;;;5057537;28;20036;-74
2021/03/27 02:06:45;;;;;;;94.05;51.60;;;5.90;92.00;;;;;;5056735;28;20044;-74
2021/03/27 02:09:31;;;;;;;99.65;54.58;;;5.90;91.40;;;;;;5057831;28;20094;-74
2021/03/27 02:12:32;;;;;;;99.82;53.47;;;5.90;90.50;;;;;;5057733;28;20124;-70
2021/03/27 02:15:04;;;;;;;95.57;50.53;;;5.90;90.10;;;;;;5075647;28;20031;-71
2021/03/27 02:17:51;;;;;;;89.65;51.60;;;5.80;90.50;;;;;;5057103;28;20033;-71
2021/03/27 02:20:48;;;;;;;96.78;50.20;;;5.70;90.40;;;;;;5057533;28;20036;-72
2021/03/27 02:23:54;;;;;;;92.63;50.58;;;5.70;91.40;;;;;;5075486;28;20025;-72
2021/03/27 02:26:47;;;;;;;95.22;50.78;;;5.70;91.30;;;;;;5057268;28;20119;-73
2021/03/27 02:29:46;;;;;;;93.53;51.65;;;5.70;91.10;;;;;;5057386;28;20522;-73
2021/03/27 02:32:53;;;;;;;113.40;59.88;;;5.60;90.70;;;;;;5075225;28;20021;-73
2021/03/27 02:35:28;;;;;;;114.35;62.22;;;5.40;91.90;;;;;;5040823;28;20047;-73
2021/03/27 02:38:25;;;;;;;129.75;66.78;;;5.10;90.60;;;;;;5074806;28;20388;-73
2021/03/27 02:41:28;;;;;;;127.88;65.95;;;4.80;91.20;;;;;;5057357;28;20085;-73
2021/03/27 02:44:10;;;;;;;124.15;66.32;;;4.70;91.90;;;;;;5075269;28;20087;-72
2021/03/27 02:46:45;;;;;;;122.53;65.25;;;4.60;92.40;;;;;;5075046;28;20568;-73
2021/03/27 02:49:37;;;;;;;136.85;66.40;;;4.60;92.90;;;;;;5056902;28;20078;-73
2021/03/27 02:52:21;;;;;;;123.07;63.13;;;4.50;92.90;;;;;;5074835;28;20029;-74
2021/03/27 02:55:13;;;;;;;114.65;61.67;;;4.70;93.00;;;;;;5074534;28;20120;-73
2021/03/27 02:57:48;;;;;;;109.15;56.75;;;4.70;93.20;;;;;;5074741;28;20017;-74
2021/03/27 03:00:26;;;;;;;106.07;57.90;;;4.80;93.50;;;;;;5074969;28;20036;-73
2021/03/27 03:03:02;;;;;;;109.22;57.50;;;4.70;93.20;;;;;;5056637;28;20032;-74
2021/03/27 03:05:56;;;;;;;96.75;50.67;;;4.70;93.70;;;;;;5056616;28;20553;-73
2021/03/27 03:08:36;;;;;;;91.88;48.63;;;4.70;93.90;;;;;;5074291;28;20033;-74
2021/03/27 03:11:17;;;;;;;82.25;45.00;;;4.80;94.30;;;;;;5056593;28;20032;-73
2021/03/27 03:13:47;;;;;;;78.47;43.15;;;4.90;94.00;;;;;;5074318;28;20025;-73
2021/03/27 03:16:37;;;;;;;83.75;42.63;;;5.00;93.50;;;;;;5074437;28;20540;-73
2021/03/27 03:19:18;;;;;;;79.30;40.97;;;5.00;93.70;;;;;;5056349;28;20415;-74
2021/03/27 03:21:52;;;;;;;82.97;42.15;;;5.10;93.90;;;;;;5056298;28;20111;-73
2021/03/27 03:24:30;;;;;;;74.15;40.70;;;5.10;92.60;;;;;;5074177;28;20492;-74
2021/03/27 03:27:08;;;;;;;76.72;41.35;;;5.10;93.00;;;;;;5056298;28;20028;-69
2021/03/27 03:30:05;;;;;;;87.10;43.70;;;5.00;92.80;;;;;;5055381;28;20028;-71
2021/03/27 03:32:58;;;;;;;83.07;43.50;;;5.00;93.60;;;;;;5056086;28;20057;-72
2021/03/27 03:35:49;;;;;;;91.60;43.97;;;5.00;93.90;;;;;;5056008;28;20028;-71
2021/03/27 03:38:40;;;;;;;86.63;43.42;;;5.00;94.30;;;;;;5056087;28;20025;-70
2021/03/27 03:41:39;;;;;;;92.60;44.55;;;5.00;94.60;;;;;;5055946;28;20033;-71
2021/03/27 03:44:13;;;;;;;85.80;41.97;;;5.00;93.90;;;;;;5073900;28;20031;-69
2021/03/27 03:46:45;;;;;;;84.63;43.65;;;5.00;94.60;;;;;;5055688;28;20059;-71
2021/03/27 03:49:35;;;;;;;80.47;41.58;;;4.90;93.80;;;;;;5055808;28;20123;-69
2021/03/27 03:52:06;;;;;;;76.55;40.72;;;4.90;93.70;;;;;;5074011;28;20039;-69
2021/03/27 03:54:56;;;;;;;87.90;42.90;;;4.90;93.30;;;;;;5073367;28;20067;-71
2021/03/27 03:57:31;;;;;;;86.10;42.75;;;4.90;93.00;;;;;;5055683;28;20034;-74
2021/03/27 04:00:14;;;;;;;83.60;43.05;;;4.90;93.00;;;;;;5055685;28;20434;-72
2021/03/27 04:03:05;;;;;;;86.53;45.15;;;4.80;93.60;;;;;;5073296;28;20028;-72
2021/03/27 04:05:54;;;;;;;83.68;44.97;;;4.80;93.20;;;;;;5055512;28;20118;-72
2021/03/27 04:08:39;;;;;;;82.97;44.10;;;4.40;93.40;;;;;;5055506;28;20035;-73
2021/03/27 04:11:44;;;;;;;88.15;44.97;;;4.20;93.20;;;;;;5055667;28;20475;-70
2021/03/27 04:14:30;;;;;;;81.82;43.28;;;4.20;94.20;;;;;;5055373;28;20486;-72
2021/03/27 04:17:33;;;;;;;79.63;42.30;;;4.30;94.80;;;;;;5054839;28;20037;-72
2021/03/27 04:20:29;;;;;;;83.35;44.50;;;4.30;94.40;;;;;;5000752;28;20036;-73
2021/03/27 04:23:03;;;;;;;82.50;42.38;;;4.20;94.40;;;;;;5073044;28;20056;-72
2021/03/27 04:25:53;;;;;;;81.70;43.58;;;4.10;94.90;;;;;;5073325;28;20028;-71
2021/03/27 04:28:45;;;;;;;89.32;44.33;;;3.90;94.60;;;;;;5073247;28;20465;-71
2021/03/27 04:31:16;;;;;;;;;;;3.90;94.40;;;;;;5073611;28;20044;-71
2021/03/27 04:34:13;;;;;;;90.70;45.30;;;3.80;94.40;;;;;;5073138;28;20352;-71
2021/03/27 04:37:06;;;;;;;84.65;44.28;;;3.90;95.10;;;;;;5073155;28;20059;-69
2021/03/27 04:39:37;;;;;;;79.53;41.58;;;4.00;95.00;;;;;;5073137;28;20037;-71
2021/03/27 04:42:24;;;;;;;80.20;41.25;;;4.00;94.80;;;;;;5054884;28;20536;-73
2021/03/27 04:45:24;;;;;;;74.18;39.90;;;4.10;93.80;;;;;;5072654;28;20037;-73
2021/03/27 04:48:25;;;;;;;84.10;41.30;;;4.10;93.60;;;;;;5055022;28;20033;-72
2021/03/27 04:50:57;;;;;;;86.30;43.33;;;4.10;94.40;;;;;;5054981;28;20415;-74
2021/03/27 04:53:23;;;;;;;;;;;4.10;94.10;;;;;;5073321;28;20495;-70
2021/03/27 04:56:03;;;;;;;84.00;41.92;;;4.10;94.90;;;;;;5054355;28;19950;-71
2021/03/27 04:59:11;;;;;;;81.30;42.87;;;4.10;94.50;;;;;;5072970;28;20103;-70
2021/03/27 05:02:18;;;;;;;73.35;39.97;;;4.10;94.90;;;;;;4972044;28;20038;-71
2021/03/27 05:04:57;;;;;;;83.35;40.63;;;4.10;94.70;;;;;;5070113;28;20051;-69
2021/03/27 05:07:29;;;;;;;73.18;40.72;;;4.20;93.60;;;;;;5072828;28;20032;-68
2021/03/27 05:10:20;;;;;;;73.78;39.38;;;4.20;93.40;;;;;;5072773;28;20028;-69
2021/03/27 05:12:54;;;;;;;77.93;41.72;;;4.10;93.10;;;;;;5072470;28;20539;-67
2021/03/27 05:15:36;;;;;;;79.57;40.80;;;4.10;93.60;;;;;;5054727;28;20025;-69
2021/03/27 05:18:32;;;;;;;79.82;39.63;;;4.10;93.40;;;;;;5072678;28;20066;-69
2021/03/27 05:21:24;;;;;;;81.22;41.30;;;4.20;93.60;;;;;;5072621;28;20469;-71
2021/03/27 05:24:03;;;;;;;83.93;42.05;;;4.20;94.50;;;;;;5010433;28;20085;-72
2021/03/27 05:26:47;;;;;;;75.85;40.33;;;4.30;93.60;;;;;;5054599;28;20400;-71
2021/03/27 05:29:42;;;;;;;86.85;43.95;;;4.40;93.40;;;;;;5054427;28;20388;-72
2021/03/27 05:32:45;;;;;;;94.57;47.17;;;4.40;93.60;;;;;;5054522;28;20060;-72
2021/03/27 05:35:41;;;;;;;204.15;103.68;;;4.40;93.60;;;;;;5072229;28;20400;-70
2021/03/27 05:38:39;;;;;;;98.50;50.03;;;4.40;93.40;;;;;;5054505;28;20376;-70
2021/03/27 05:41:39;;;;;;;87.30;46.45;;;4.70;93.70;;;;;;5037974;28;20067;-71
2021/03/27 05:44:44;;;;;;;99.53;49.13;;;4.80;93.30;;;;;;5054373;28;20028;-72
2021/03/27 05:47:27;;;;;;;90.93;51.10;;;4.90;93.70;;;;;;5036364;28;20041;-71
2021/03/27 05:50:17;;;;;;;98.78;53.20;;;5.00;94.30;;;;;;5054395;28;20029;-72
2021/03/27 05:52:55;;;;;;;105.93;56.45;;;5.10;93.50;;;;;;5055655;28;20029;-71
2021/03/27 05:55:58;;;;;;;108.43;55.95;;;5.10;93.70;;;;;;5054326;28;20045;-72
2021/03/27 05:58:30;;;;;;;107.05;55.17;;;5.20;93.10;;;;;;5054601;28;20032;-73
2021/03/27 06:00:59;;;;;;;96.00;53.85;;;5.40;93.40;;;;;;5055580;28;20041;-72
2021/03/27 06:03:43;;;;;;;107.40;57.58;;;5.50;92.20;;;;;;5056041;28;20028;-72
2021/03/27 06:06:12;;;;;;;93.28;49.42;;;5.60;92.00;;;;;;5055492;28;20056;-72
2021/03/27 06:08:46;;;;;;;94.38;48.38;;;5.80;91.20;;;;;;5056011;28;20037;-70
2021/03/27 06:11:39;;;;;;;96.47;48.95;;;5.80;90.20;;;;;;5054419;28;20029;-71
2021/03/27 06:14:11;;;;;;;100.47;50.60;;;5.90;90.00;;;;;;5055342;28;20389;-73
2021/03/27 06:16:50;;;;;;;105.65;52.38;;;5.90;89.50;;;;;;5054034;28;20033;-72
2021/03/27 06:20:10;;;;;;;101.72;54.25;;;6.10;90.60;;;;;;5054295;28;20377;-72
2021/03/27 06:22:41;;;;;;;108.60;57.80;;;6.10;91.40;;;;;;4974066;28;20043;-70
2021/03/27 06:25:22;;;;;;;104.93;57.65;;;6.00;93.30;;;;;;4957877;28;20042;-73
2021/03/27 06:28:03;;;;;;;101.70;57.75;;;6.10;93.40;;;;;;4958001;28;20038;-73
2021/03/27 06:31:03;;;;;;;103.47;58.30;;;6.10;92.70;;;;;;4957959;28;20034;-74
2021/03/27 06:33:45;;;;;;;109.10;57.35;;;6.20;92.70;;;;;;4945589;28;20545;-72
2021/03/27 06:36:29;;;;;;;98.43;54.75;;;6.30;91.60;;;;;;4974192;28;20553;-74
2021/03/27 06:39:19;;;;;;;103.80;56.80;;;6.50;91.40;;;;;;4973966;28;20205;-73
2021/03/27 06:41:58;;;;;;;103.63;55.50;;;6.50;91.30;;;;;;4973978;28;20089;-74
2021/03/27 06:44:28;;;;;;;110.60;61.25;;;6.60;90.50;;;;;;4957703;28;20094;-71
2021/03/27 06:47:09;;;;;;;100.35;54.58;;;6.70;91.00;;;;;;4973024;28;20089;-72
2021/03/27 06:49:54;;;;;;;107.90;59.50;;;6.90;90.60;;;;;;4973836;28;20039;-74
2021/03/27 06:52:49;;;;;;;107.60;54.03;;;7.00;90.10;;;;;;4971239;28;20039;-72
2021/03/27 06:55:27;;;;;;;101.85;52.70;;;7.10;89.40;;;;;;4955069;28;20058;-75
2021/03/27 06:58:01;;;;;;;96.15;50.90;;;7.30;89.70;;;;;;4957405;28;20031;-73
2021/03/27 07:00:42;;;;;;;86.10;49.55;;;7.50;91.20;;;;;;5031161;28;20033;-73
2021/03/27 07:03:45;;;;;;;94.22;50.10;;;7.70;89.20;;;;;;5037839;28;20385;-74
2021/03/27 07:06:33;;;;;;;84.78;49.58;;;7.90;88.30;;;;;;5055986;28;20032;-74
2021/03/27 07:09:27;;;;;;;89.15;48.70;;;8.10;87.50;;;;;;5074375;28;20082;-74
2021/03/27 07:12:02;;;;;;;90.25;49.42;;;8.30;88.10;;;;;;5055006;28;20483;-73
2021/03/27 07:14:47;;;;;;;92.15;51.85;;;8.50;86.20;;;;;;5056074;28;20072;-74
2021/03/27 07:17:42;;;;;;;86.35;46.80;;;8.60;86.60;;;;;;5056062;28;20013;-74
2021/03/27 07:20:30;;;;;;;90.82;50.40;;;8.80;85.00;;;;;;5056331;28;20380;-74
2021/03/27 07:23:44;;;;;;;93.70;52.17;;;9.00;85.30;;;;;;5074410;28;20534;-76
2021/03/27 07:26:34;;;;;;;110.32;55.58;;;9.20;83.40;;;;;;5056368;28;20452;-73
2021/03/27 07:29:06;;;;;;;85.07;46.22;;;9.30;82.90;;;;;;5053851;28;20415;-72
2021/03/27 07:31:32;;;;;;;;;;;9.50;80.90;;;;;;5053771;28;20063;-72
2021/03/27 07:34:32;;;;;;;76.45;45.67;;;9.70;80.00;;;;;;5056179;28;19930;-71
2021/03/27 07:37:40;;;;;;;79.97;45.95;;;9.90;79.20;;;;;;5056130;28;20123;-73
2021/03/27 07:40:29;;;;;;;78.90;44.20;;;10.20;78.20;;;;;;5055894;28;20483;-72
2021/03/27 07:43:42;;;;;;;82.03;49.97;;;10.40;76.30;;;;;;5073741;28;20025;-73
2021/03/27 07:46:29;;;;;;;79.03;47.40;;;10.70;79.60;;;;;;4972059;28;20039;-72
2021/03/27 07:49:25;;;;;;;80.90;46.85;;;10.90;75.20;;;;;;4956323;28;20368;-72
2021/03/27 07:52:25;;;;;;;76.53;43.65;;;11.10;76.20;;;;;;4956344;28;20026;-72
2021/03/27 07:54:54;;;;;;;72.60;44.00;;;11.30;72.60;;;;;;4943415;28;20051;-71
2021/03/27 07:57:41;;;;;;;68.72;43.08;;;11.40;70.40;;;;;;4970514;28;20056;-72
2021/03/27 08:00:12;;;;;;;110.15;57.75;;;11.60;72.20;;;;;;4970031;28;20042;-72
2021/03/27 08:02:57;;;;;;;;;;;11.80;71.90;;;;;;4970446;28;20047;-72
2021/03/27 08:05:53;;;;;;;71.82;41.50;;;12.00;72.20;;;;;;4969893;28;20334;-72
2021/03/27 08:08:30;;;;;;;77.45;44.63;;;12.10;71.00;;;;;;4969712;28;20095;-72
2021/03/27 08:11:08;;;;;;;61.58;34.00;;;12.20;70.30;;;;;;4954788;28;20035;-71
2021/03/27 08:14:11;;;;;;;49.00;29.83;;;13.30;94.20;;;;;;4953007;29;20065;-71
2021/03/27 08:17:14;;;;;;;47.97;26.75;;;14.50;84.20;;;;;;4952499;28;20106;-72
2021/03/27 08:19:54;;;;;;;51.00;30.50;;;15.20;83.00;;;;;;4952984;29;20031;-71
2021/03/27 08:22:31;;;;;;;51.55;32.38;;;15.70;80.00;;;;;;5037180;28;20064;-72
2021/03/27 08:25:04;;;;;;;52.72;34.10;;;16.10;74.60;;;;;;5063994;28;20087;-72
2021/03/27 08:28:03;;;;;;;51.03;33.70;;;16.40;70.80;;;;;;5055302;28;20028;-72
2021/03/27 08:30:46;;;;;;;56.80;35.78;;;16.70;70.00;;;;;;5004717;28;20123;-72
2021/03/27 08:33:39;;;;;;;51.10;33.28;;;17.00;68.50;;;;;;5055091;28;20017;-71
2021/03/27 08:36:43;;;;;;;51.13;32.97;;;17.30;64.40;;;;;;5071839;28;20473;-70
2021/03/27 08:39:42;;;;;;;52.20;33.88;;;17.50;60.30;;;;;;5054838;28;20109;-70
2021/03/27 08:42:26;;;;;;;49.63;30.55;;;17.70;60.40;;;;;;5073010;28;20112;-68
2021/03/27 08:45:42;;;;;;;89.97;48.35;;;17.80;56.60;;;;;;5072605;28;20154;-71
2021/03/27 08:48:38;;;;;;;50.28;30.65;;;18.00;60.70;;;;;;5013227;28;20046;-70
2021/03/27 08:51:35;;;;;;;49.03;29.75;;;18.10;60.70;;;;;;5069790;28;20027;-71
2021/03/27 08:54:42;;;;;;;43.17;27.67;;;18.00;55.60;;;;;;5060034;28;20381;-70
2021/03/27 08:57:12;;;;;;;42.00;27.15;;;18.30;58.90;;;;;;5052705;28;20043;-70
2021/03/27 09:00:00;;;;;;;45.65;27.67;;;18.60;58.40;;;;;;5034462;28;20037;-70
2021/03/27 09:02:49;;;;;;;42.63;28.02;;;18.20;48.90;;;;;;5052704;28;20033;-74
2021/03/27 09:05:30;;;;;;;42.65;28.02;;;17.90;52.40;;;;;;5006118;28;20053;-71
2021/03/27 09:08:15;;;;;;;41.13;26.23;;;17.80;51.50;;;;;;5034891;28;20036;-71
2021/03/27 09:10:54;;;;;;;41.05;25.73;;;17.60;51.80;;;;;;5052616;28;20040;-72
2021/03/27 09:14:10;;;;;;;37.95;24.23;;;17.40;49.80;;;;;;5051895;28;20035;-72
2021/03/27 09:16:53;;;;;;;34.70;24.30;;;17.50;50.50;;;;;;4955435;28;20038;-72
2021/03/27 09:19:39;;;;;;;36.40;23.98;;;17.60;49.40;;;;;;5062471;28;20032;-72
2021/03/27 09:22:38;;;;;;;33.55;22.30;;;17.50;51.10;;;;;;5069947;28;20016;-70
2021/03/27 09:25:46;;;;;;;37.30;23.42;;;17.50;48.80;;;;;;5071945;28;20054;-72
2021/03/27 09:28:25;;;;;;;38.97;23.90;;;17.70;49.40;;;;;;5022784;28;20176;-73
2021/03/27 09:31:02;;;;;;;38.00;22.83;;;17.90;48.30;;;;;;5076150;28;20488;-75
2021/03/27 09:33:29;;;;;;;34.67;23.27;;;18.10;48.80;;;;;;5076382;28;20025;-73
2021/03/27 09:35:58;;;;;;;35.75;24.00;;;18.20;48.40;;;;;;5076139;28;20032;-74
2021/03/27 09:38:46;;;;;;;38.50;25.33;;;18.40;49.80;;;;;;5076216;28;20531;-71
2021/03/27 09:41:37;;;;;;;41.78;26.65;;;18.70;49.30;;;;;;5058180;28;20115;-71
2021/03/27 09:44:33;;;;;;;46.70;28.15;;;18.90;48.50;;;;;;5076100;28;20040;-72
2021/03/27 09:47:15;;;;;;;45.08;26.67;;;19.00;48.30;;;;;;5075556;28;20413;-74
2021/03/27 09:50:04;;;;;;;33.90;22.33;;;19.10;46.60;;;;;;5056799;28;20028;-71
2021/03/27 09:53:04;;;;;;;30.65;19.83;;;19.30;46.40;;;;;;5075989;28;20028;-70
2021/03/27 09:55:55;;;;;;;29.02;19.15;;;19.50;44.50;;;;;;5057477;28;20094;-72
2021/03/27 09:58:41;;;;;;;28.63;18.95;;;19.50;45.10;;;;;;5075985;28;20059;-72
2021/03/27 10:01:26;;;;;;;30.25;19.45;;;19.60;43.60;;;;;;5057824;28;20032;-72
2021/03/27 10:04:21;;;;;;;28.70;18.58;;;19.90;47.20;;;;;;5075695;28;20464;-70
2021/03/27 10:07:07;;;;;;;28.88;17.50;;;20.30;45.80;;;;;;5075676;28;20475;-69
2021/03/27 10:10:10;;;;;;;27.70;17.70;;;20.70;42.30;;;;;;5058187;28;20074;-70
2021/03/27 10:13:14;;;;;;;24.10;16.92;;;20.90;42.10;;;;;;5057551;28;20035;-70
2021/03/27 10:15:51;;;;;;;15.52;11.30;;;21.20;44.90;;;;;;4974410;28;20495;-70
2021/03/27 10:18:41;;;;;;;18.85;12.20;;;21.20;41.20;;;;;;4974415;28;20093;-72
2021/03/27 10:21:29;;;;;;;13.27;9.52;;;21.10;39.10;;;;;;5020023;28;20040;-72
2021/03/27 10:24:08;;;;;;;16.15;11.00;;;21.30;40.50;;;;;;5069218;28;20086;-71
2021/03/27 10:26:43;;;;;;;21.17;11.98;;;22.00;38.30;;;;;;5075090;28;20040;-72
2021/03/27 10:29:42;;;;;;;15.07;11.10;;;22.50;38.00;;;;;;5057257;28;20035;-69
2021/03/27 10:32:32;;;;;;;27.85;12.73;;;23.40;36.60;;;;;;5037435;28;20060;-72
2021/03/27 10:35:26;;;;;;;14.60;8.50;;;23.70;39.20;;;;;;5057251;28;20024;-70
2021/03/27 10:38:22;;;;;;;14.48;9.45;;;24.10;36.50;;;;;;5056892;28;20040;-70
2021/03/27 10:41:04;;;;;;;13.73;9.32;;;24.30;35.00;;;;;;5075190;28;20070;-70
2021/03/27 10:43:55;;;;;;;11.75;8.23;;;24.50;34.90;;;;;;5075125;28;20020;-73
2021/03/27 10:46:40;;;;;;;10.02;7.65;;;23.40;36.10;;;;;;5056901;28;20024;-74
2021/03/27 10:49:27;;;;;;;13.43;8.02;;;23.30;37.00;;;;;;5056977;28;20102;-70
2021/03/27 10:52:14;;;;;;;19.88;8.13;;;23.40;37.90;;;;;;5075041;28;20107;-71
2021/03/27 10:55:24;;;;;;;15.10;10.63;;;23.80;36.90;;;;;;5074833;28;20112;-72
2021/03/27 10:58:23;;;;;;;17.25;10.50;;;24.80;35.60;;;;;;5056770;28;20094;-72
2021/03/27 11:01:10;;;;;;;17.65;8.52;;;24.90;34.90;;;;;;5056594;28;20035;-73
2021/03/27 11:03:42;;;;;;;14.45;9.30;;;24.80;33.90;;;;;;5056652;28;20035;-72
2021/03/27 11:06:32;;;;;;;19.45;10.93;;;;;;;;;;5056608;28;20054;-73
2021/03/27 11:09:01;;;;;;;17.55;11.23;;;;;;;;;;5074250;28;20540;-71
2021/03/27 11:11:30;;;;;;;13.65;9.80;;;;;;;;;;5074308;28;20108;-71
2021/03/27 11:14:15;;;;;;;20.00;11.15;;;;;;;;;;5056461;28;20029;-71
2021/03/27 11:17:00;;;;;;;12.10;6.15;;;;;;;;;;5074439;28;20037;-69
2021/03/27 11:19:45;;;;;;;13.52;6.07;;;;;;;;;;5052348;28;20021;-69
2021/03/27 11:22:14;;;;;;;12.20;7.63;;;;;;;;;;5062127;28;20033;-70
2021/03/27 11:24:59;;;;;;;12.85;7.28;;;;;;;;;;5047722;28;20017;-71
2021/03/27 11:27:28;;;;;;;19.48;9.77;;;;;;;;;;5063336;28;20033;-70
2021/03/27 11:30:17;;;;;;;10.73;6.38;;;;;;;;;;5052438;28;20024;-71
2021/03/27 11:32:47;;;;;;;13.05;6.35;;;;;;;;;;5043171;28;20123;-70
2021/03/27 11:35:31;;;;;;;11.63;6.07;;;;;;;;;;5056067;28;20025;-72
2021/03/27 11:38:16;;;;;;;6.43;5.03;;;;;;;;;;5056065;28;20526;-70
2021/03/27 11:40:47;;;;;;;8.82;6.32;;;;;;;;;;5073636;28;20365;-70
2021/03/27 11:43:31;;;;;;;10.70;5.35;;;;;;;;;;5055950;28;20025;-72
2021/03/27 11:46:03;;;;;;;10.75;6.10;;;;;;;;;;5073730;28;20030;-70
2021/03/27 11:48:40;;;;;;;9.13;5.00;;;;;;;;;;5055739;28;20029;-71
2021/03/27 11:51:12;;;;;;;11.60;5.05;;;;;;;;;;5052369;28;20028;-69
2021/03/27 11:53:50;;;;;;;9.55;6.53;;;;;;;;;;5073409;28;20073;-69
2021/03/27 11:56:35;;;;;;;11.75;5.05;;;;;;;;;;5072321;28;20544;-70
2021/03/27 12:02:05;;;;;;;12.40;7.90;;;;;;;;;;5073252;28;20077;-71
2021/03/27 12:04:48;;;;;;;7.82;5.25;;;;;;;;;;5073537;28;20108;-71
2021/03/27 12:07:20;;;;;;;7.22;4.68;;;;;;;;;;5073324;28;20058;-70
2021/03/27 12:09:58;;;;;;;6.82;4.55;;;;;;;;;;5073489;28;20054;-70
2021/03/27 12:12:52;;;;;;;6.25;4.15;;;32.70;26.60;;;;;;5055445;28;20123;-70
2021/03/27 12:15:26;;;;;;;6.32;3.97;;;34.40;26.20;;;;;;5055539;28;20833;-70
2021/03/27 12:18:40;;;;;;;5.32;4.05;;;35.10;26.50;;;;;;5073120;28;20024;-69
2021/03/27 12:21:25;;;;;;;6.93;4.30;;;36.20;25.00;;;;;;5073080;28;20063;-70
2021/03/27 12:23:59;;;;;;;5.68;4.25;;;37.00;25.50;;;;;;5049016;28;20079;-69
2021/03/27 12:27:02;;;;;;;6.25;3.90;;;36.90;23.70;;;;;;5035273;28;20373;-69
2021/03/27 12:29:58;;;;;;;5.38;3.88;;;36.50;24.20;;;;;;5027017;28;20037;-71
2021/03/27 12:32:47;;;;;;;5.07;3.78;;;36.30;24.20;;;;;;5011647;28;20041;-73
2021/03/27 12:35:31;;;;;;;7.20;4.22;;;33.60;25.10;;;;;;5035093;28;20036;-71
2021/03/27 12:38:06;;;;;;;6.88;4.10;;;31.00;26.40;;;;;;5035163;28;20465;-69
2021/03/27 12:40:32;;;;;;;8.88;5.43;;;;;;;;;;5053298;28;20131;-71
2021/03/27 12:43:18;;;;;;;9.32;4.68;;;;;;;;;;5053079;28;20096;-69
2021/03/27 12:45:49;;;;;;;8.85;4.50;;;;;;;;;;5034876;28;20024;-70
2021/03/27 12:48:25;;;;;;;16.33;9.27;;;;;;;;;;5052951;28;20021;-70
2021/03/27 12:51:07;;;;;;;37.95;17.80;;;;;;;;;;5053189;28;20066;-68
2021/03/27 12:54:00;;;;;;;21.70;12.75;;;;;;;;;;5034953;28;20029;-69
2021/03/27 12:56:35;;;;;;;21.10;12.30;;;;;;;;;;5031343;28;20409;-70
2021/03/27 12:59:19;;;;;;;11.43;7.32;;;;;;;;;;5032844;28;20104;-68
2021/03/27 13:01:45;;;;;;;11.98;7.30;;;;;;;;;;5034324;28;20037;-71
2021/03/27 13:04:11;;;;;;;11.02;6.55;;;;;;;;;;5037122;28;20026;-68
2021/03/27 13:06:53;;;;;;;6.75;4.75;;;;;;;;;;5035459;28;20152;-70
2021/03/27 13:09:19;;;;;;;;;;;;;;;;;;5037626;28;20053;-70
2021/03/27 13:11:51;;;;;;;6.22;4.40;;;;;;;;;;5036515;28;20375;-69
2021/03/27 13:14:36;;;;;;;10.85;5.20;;;;;;;;;;5035462;28;20031;-69
2021/03/27 13:17:09;;;;;;;11.82;5.75;;;;;;;;;;5036805;28;20065;-70
2021/03/27 13:19:45;;;;;;;7.72;4.72;;;;;;;;;;5036715;28;20100;-68
2021/03/27 13:22:34;;;;;;;5.45;4.30;;;32.10;27.40;;;;;;5035296;28;20021;-69
2021/03/27 13:25:27;;;;;;;8.32;4.65;;;33.60;26.10;;;;;;5036614;28;20040;-71
2021/03/27 13:27:56;;;;;;;6.93;5.78;;;34.00;25.70;;;;;;5036340;28;20362;-68
2021/03/27 13:30:31;;;;;;;6.05;4.07;;;35.70;25.40;;;;;;5039231;28;20456;-70
2021/03/27 13:33:36;;;;;;;7.35;3.78;;;36.60;24.70;;;;;;5055208;28;20029;-70
2021/03/27 13:36:17;;;;;;;7.85;4.28;;;34.90;24.20;;;;;;5038564;28;20417;-71
2021/03/27 13:38:53;;;;;;;8.05;3.70;;;;;;;;;;5055887;28;20051;-69
2021/03/27 13:41:25;;;;;;;6.93;4.32;;;;;;;;;;5053639;28;20384;-69
2021/03/27 13:43:56;;;;;;;11.25;4.57;;;;;;;;;;5054822;28;20037;-67
2021/03/27 13:46:23;;;;;;;;;;;;;;;;;;5056602;28;20025;-70
2021/03/27 13:48:55;;;;;;;12.35;4.70;;;;;;;;;;5056112;28;19916;-71
2021/03/27 13:51:22;;;;;;;15.02;5.40;;;;;;;;;;5056124;28;20107;-67
2021/03/27 13:54:00;;;;;;;26.60;9.32;;;;;;;;;;5054444;28;20025;-69
2021/03/27 13:56:26;;;;;;;7.72;4.82;;;;;;;;;;5066819;28;20110;-70
2021/03/27 13:59:03;;;;;;;10.88;5.63;;;;;;;;;;5063674;28;20487;-70
2021/03/27 14:01:29;;;;;;;11.20;5.55;;;;;;;;;;5063632;28;20144;-69
2021/03/27 14:04:05;;;;;;;16.73;7.35;;;;;;;;;;5047132;28;20108;-70
2021/03/27 14:06:34;;;;;;;7.97;5.45;;;;;;;;;;5065100;28;20441;-69
2021/03/27 14:09:07;;;;;;;10.60;4.47;;;31.20;27.90;;;;;;5064577;28;20075;-71
2021/03/27 14:11:49;;;;;;;13.20;5.28;;;31.50;27.20;;;;;;5063743;28;20017;-69
2021/03/27 14:14:21;;;;;;;10.80;5.68;;;31.70;29.30;;;;;;5063279;28;20472;-69
2021/03/27 14:17:07;;;;;;;11.30;5.57;;;32.40;26.90;;;;;;5045303;28;20025;-69
2021/03/27 14:19:34;;;;;;;7.22;4.75;;;;;;;;;;5045795;28;20032;-69
2021/03/27 14:22:05;;;;;;;5.60;4.00;;;;;;;;;;5046189;28;20103;-69
2021/03/27 14:24:37;;;;;;;6.82;4.65;;;;;;;;;;5065052;28;20016;-69